Houston, Texas
Traffic Map
Current Weather Conditions
Houston, Texas
Overcast
Overcast
52°
Feels Like: 52°
Wind Chill: 52° Ceiling: 12000
Heat Index: 52° Visibility: 10mi
Dew Point: 35° Wind: 12mph
Humidity: 53% Direction: 360° (N)
Pressure: 30.15in Gusts: 0mph
Raw Report DataKIAH 150753Z 36010KT 10SM SCT090 OVC120 11/02 A3015 RMK AO2 SLP208 T01110017
Traffic Incident Summary
Active as of:
Severity:
Category:
InformationThere was an issue retrieving the traffic information for this location. Please try a different location or try again shortly.
Advertisements